createdAt,value
2023-04-17T00:00:09.229Z,487.00
2023-04-17T00:01:09.236Z,486.00
2023-04-17T00:02:09.344Z,483.00
2023-04-17T00:03:09.400Z,483.00
2023-04-17T00:04:09.455Z,485.00
2023-04-17T00:05:09.459Z,486.00
2023-04-17T00:06:09.429Z,484.00
2023-04-17T00:07:09.474Z,485.00
2023-04-17T00:08:09.508Z,484.00
2023-04-17T00:09:09.749Z,482.00
2023-04-17T00:10:09.601Z,482.00
2023-04-17T00:11:09.633Z,483.00
2023-04-17T00:12:09.680Z,483.00
2023-04-17T00:13:09.688Z,484.00
2023-04-17T00:14:09.734Z,484.00
2023-04-17T00:15:09.761Z,485.00
2023-04-17T00:16:09.844Z,486.00
2023-04-17T00:17:09.861Z,485.00
2023-04-17T00:18:09.895Z,487.00
2023-04-17T00:19:10.293Z,489.00
2023-04-17T00:20:09.972Z,487.00
2023-04-17T00:21:10.048Z,487.00
2023-04-17T00:22:10.067Z,488.00
2023-04-17T00:23:10.095Z,487.00
2023-04-17T00:24:10.144Z,487.00
2023-04-17T00:25:10.171Z,485.00
2023-04-17T00:26:10.209Z,484.00
2023-04-17T00:27:10.280Z,485.00
2023-04-17T00:28:10.281Z,486.00
2023-04-17T00:29:10.558Z,488.00
2023-04-17T00:30:10.367Z,488.00
2023-04-17T00:31:10.405Z,489.00
2023-04-17T00:32:10.651Z,492.00
2023-04-17T00:33:10.512Z,489.00
2023-04-17T00:34:10.539Z,488.00
2023-04-17T00:35:10.569Z,490.00
2023-04-17T00:36:10.588Z,489.00
2023-04-17T00:37:11.509Z,490.00
2023-04-17T00:38:10.664Z,488.00
2023-04-17T00:39:11.045Z,490.00
2023-04-17T00:40:10.773Z,489.00
2023-04-17T00:41:10.796Z,488.00
2023-04-17T00:42:10.849Z,485.00
2023-04-17T00:43:10.860Z,486.00
2023-04-17T00:44:10.889Z,485.00
2023-04-17T00:45:10.994Z,485.00
2023-04-17T00:46:11.013Z,486.00
2023-04-17T00:47:11.032Z,487.00
2023-04-17T00:48:11.108Z,488.00
2023-04-17T00:49:11.328Z,488.00
2023-04-17T00:50:11.138Z,485.00
2023-04-17T00:51:11.514Z,486.00
2023-04-17T00:52:11.235Z,484.00
2023-04-17T00:53:11.258Z,484.00
2023-04-17T00:54:11.286Z,482.00
2023-04-17T00:55:11.351Z,479.00
2023-04-17T00:56:11.359Z,478.00
2023-04-17T00:57:11.429Z,479.00
2023-04-17T00:58:11.461Z,479.00
2023-04-17T00:59:11.671Z,479.00
2023-04-17T01:00:11.508Z,479.00
2023-04-17T01:01:11.616Z,480.00
2023-04-17T01:02:11.713Z,481.00
2023-04-17T01:03:11.753Z,482.00
2023-04-17T01:04:11.855Z,485.00
2023-04-17T01:05:11.735Z,489.00
2023-04-17T01:06:11.757Z,486.00
2023-04-17T01:07:11.777Z,486.00
2023-04-17T01:08:11.841Z,487.00
2023-04-17T01:09:12.157Z,485.00
2023-04-17T01:10:11.910Z,482.00
2023-04-17T01:11:11.955Z,484.00
2023-04-17T01:12:11.991Z,482.00
2023-04-17T01:13:12.035Z,484.00
2023-04-17T01:14:12.077Z,485.00
2023-04-17T01:15:12.115Z,483.00
2023-04-17T01:16:12.198Z,483.00
2023-04-17T01:17:12.384Z,482.00
2023-04-17T01:18:12.305Z,483.00
2023-04-17T01:19:12.411Z,482.00
2023-04-17T01:20:12.362Z,485.00
2023-04-17T01:21:12.387Z,489.00
2023-04-17T01:22:12.417Z,488.00
2023-04-17T01:23:12.470Z,491.00
2023-04-17T01:24:12.502Z,493.00
2023-04-17T01:25:12.543Z,492.00
2023-04-17T01:26:12.610Z,491.00
2023-04-17T01:27:12.649Z,489.00
2023-04-17T01:28:12.674Z,488.00
2023-04-17T01:29:12.948Z,486.00
2023-04-17T01:30:12.761Z,487.00
2023-04-17T01:31:12.823Z,488.00
2023-04-17T01:32:12.832Z,489.00
2023-04-17T01:33:12.875Z,488.00
2023-04-17T01:34:13.007Z,490.00
2023-04-17T01:35:13.014Z,489.00
2023-04-17T01:36:13.055Z,491.00
2023-04-17T01:37:13.097Z,493.00
2023-04-17T01:38:13.112Z,496.00
2023-04-17T01:39:13.370Z,499.00
2023-04-17T01:40:13.197Z,498.00
2023-04-17T01:41:13.273Z,496.00
2023-04-17T01:42:13.290Z,495.00
2023-04-17T01:43:13.336Z,493.00
2023-04-17T01:44:13.365Z,492.00
2023-04-17T01:45:13.431Z,492.00
2023-04-17T01:46:13.512Z,494.00
2023-04-17T01:47:13.522Z,497.00
2023-04-17T01:48:13.550Z,497.00
2023-04-17T01:49:13.679Z,497.00
2023-04-17T01:50:13.673Z,499.00
2023-04-17T01:51:13.699Z,498.00
2023-04-17T01:52:13.742Z,494.00
2023-04-17T01:53:13.784Z,494.00
2023-04-17T01:54:13.827Z,492.00
2023-04-17T01:55:13.884Z,489.00
2023-04-17T01:56:13.962Z,489.00
2023-04-17T01:57:13.991Z,493.00
2023-04-17T01:58:14.037Z,495.00
2023-04-17T01:59:14.295Z,494.00
2023-04-17T02:00:14.127Z,491.00
2023-04-17T02:01:14.169Z,490.00
2023-04-17T02:02:14.240Z,489.00
2023-04-17T02:03:14.316Z,488.00
2023-04-17T02:04:14.345Z,489.00
2023-04-17T02:05:14.322Z,489.00
2023-04-17T02:06:14.382Z,490.00
2023-04-17T02:07:14.400Z,490.00
2023-04-17T02:08:14.437Z,490.00
2023-04-17T02:09:14.490Z,487.00
2023-04-17T02:10:14.547Z,488.00
2023-04-17T02:11:14.585Z,489.00
2023-04-17T02:12:14.619Z,488.00
2023-04-17T02:13:14.673Z,490.00
2023-04-17T02:14:14.751Z,492.00
2023-04-17T02:15:14.776Z,494.00
2023-04-17T02:16:14.866Z,494.00
2023-04-17T02:17:14.866Z,493.00
2023-04-17T02:18:14.890Z,492.00
2023-04-17T02:19:14.942Z,490.00
2023-04-17T02:20:14.986Z,488.00
2023-04-17T02:21:15.028Z,488.00
2023-04-17T02:22:15.106Z,488.00
2023-04-17T02:23:15.109Z,486.00
2023-04-17T02:24:15.191Z,486.00
2023-04-17T02:25:15.225Z,485.00
2023-04-17T02:26:15.328Z,486.00
2023-04-17T02:27:15.314Z,486.00
2023-04-17T02:28:15.374Z,486.00
2023-04-17T02:29:15.425Z,488.00
2023-04-17T02:30:15.485Z,490.00
2023-04-17T02:31:15.544Z,491.00
2023-04-17T02:32:15.533Z,491.00
2023-04-17T02:33:15.576Z,490.00
2023-04-17T02:34:15.632Z,488.00
2023-04-17T02:35:15.700Z,486.00
2023-04-17T02:36:15.711Z,484.00
2023-04-17T02:37:16.563Z,483.00
2023-04-17T02:38:15.800Z,485.00
2023-04-17T02:39:15.838Z,484.00
2023-04-17T02:40:15.900Z,482.00
2023-04-17T02:41:15.949Z,482.00
2023-04-17T02:42:15.980Z,483.00
2023-04-17T02:43:16.013Z,484.00
2023-04-17T02:44:16.068Z,484.00
2023-04-17T02:45:16.149Z,481.00
2023-04-17T02:46:16.176Z,482.00
2023-04-17T02:47:16.233Z,483.00
2023-04-17T02:48:16.248Z,484.00
2023-04-17T02:49:16.331Z,485.00
2023-04-17T02:50:16.390Z,485.00
2023-04-17T02:51:16.388Z,484.00
2023-04-17T02:52:16.498Z,486.00
2023-04-17T02:53:16.526Z,486.00
2023-04-17T02:54:16.573Z,485.00
2023-04-17T02:55:16.592Z,484.00
2023-04-17T02:56:16.650Z,482.00
2023-04-17T02:57:16.670Z,481.00
2023-04-17T02:58:16.759Z,481.00
2023-04-17T02:59:16.767Z,482.00
2023-04-17T03:00:16.791Z,481.00
2023-04-17T03:01:16.882Z,481.00
2023-04-17T03:02:17.006Z,482.00
2023-04-17T03:03:17.146Z,483.00
2023-04-17T03:04:17.030Z,485.00
2023-04-17T03:05:17.035Z,486.00
2023-04-17T03:06:17.116Z,487.00
2023-04-17T03:07:17.172Z,489.00
2023-04-17T03:08:17.192Z,492.00
2023-04-17T03:09:17.246Z,491.00
2023-04-17T03:10:17.276Z,491.00
2023-04-17T03:11:17.358Z,488.00
2023-04-17T03:12:17.393Z,485.00
2023-04-17T03:13:17.438Z,485.00
2023-04-17T03:14:17.452Z,484.00
2023-04-17T03:15:17.512Z,485.00
2023-04-17T03:16:17.608Z,485.00
2023-04-17T03:17:17.623Z,487.00
2023-04-17T03:18:17.678Z,487.00
2023-04-17T03:19:17.702Z,488.00
2023-04-17T03:20:17.758Z,486.00
2023-04-17T03:21:17.790Z,484.00
2023-04-17T03:22:17.851Z,485.00
2023-04-17T03:23:17.872Z,486.00
2023-04-17T03:24:17.967Z,488.00
2023-04-17T03:25:18.022Z,486.00
2023-04-17T03:26:18.024Z,485.00
2023-04-17T03:27:18.058Z,486.00
2023-04-17T03:28:18.099Z,485.00
2023-04-17T03:29:18.140Z,483.00
2023-04-17T03:30:18.207Z,482.00
2023-04-17T03:31:18.243Z,485.00
2023-04-17T03:32:18.360Z,485.00
2023-04-17T03:33:18.316Z,487.00
2023-04-17T03:34:18.376Z,483.00
2023-04-17T03:35:18.416Z,484.00
2023-04-17T03:36:18.484Z,483.00
2023-04-17T03:37:18.612Z,481.00
2023-04-17T03:38:18.566Z,480.00
2023-04-17T03:39:18.591Z,482.00
2023-04-17T03:40:18.665Z,483.00
2023-04-17T03:41:18.680Z,483.00
2023-04-17T03:42:18.754Z,480.00
2023-04-17T03:43:18.766Z,482.00
2023-04-17T03:44:18.827Z,483.00
2023-04-17T03:45:18.856Z,484.00
2023-04-17T03:46:18.988Z,487.00
2023-04-17T03:47:19.059Z,487.00
2023-04-17T03:48:19.011Z,487.00
2023-04-17T03:49:19.049Z,490.00
2023-04-17T03:50:19.093Z,488.00
2023-04-17T03:51:19.639Z,485.00
2023-04-17T03:52:19.188Z,487.00
2023-04-17T03:53:19.258Z,485.00
2023-04-17T03:54:19.272Z,486.00
2023-04-17T03:55:19.334Z,487.00
2023-04-17T03:56:19.370Z,485.00
2023-04-17T03:57:19.439Z,486.00
2023-04-17T03:58:19.450Z,490.00
2023-04-17T03:59:19.519Z,489.00
2023-04-17T04:00:19.542Z,489.00
2023-04-17T04:01:19.606Z,489.00
2023-04-17T04:02:19.711Z,490.00
2023-04-17T04:03:19.889Z,489.00
2023-04-17T04:04:19.846Z,489.00
2023-04-17T04:05:19.932Z,488.00
2023-04-17T04:06:19.807Z,491.00
2023-04-17T04:07:19.834Z,491.00
2023-04-17T04:08:19.886Z,491.00
2023-04-17T04:09:19.920Z,490.00
2023-04-17T04:10:19.954Z,488.00
2023-04-17T04:11:19.993Z,491.00
2023-04-17T04:12:20.061Z,490.00
2023-04-17T04:13:20.074Z,491.00
2023-04-17T04:14:20.147Z,491.00
2023-04-17T04:15:20.176Z,491.00
2023-04-17T04:16:20.306Z,491.00
2023-04-17T04:17:20.285Z,490.00
2023-04-17T04:18:20.310Z,490.00
2023-04-17T04:19:20.350Z,489.00
2023-04-17T04:20:20.420Z,490.00
2023-04-17T04:21:20.432Z,489.00
2023-04-17T04:22:20.592Z,488.00
2023-04-17T04:23:20.509Z,487.00
2023-04-17T04:24:20.590Z,486.00
2023-04-17T04:25:20.606Z,490.00
2023-04-17T04:26:20.675Z,488.00
2023-04-17T04:27:20.699Z,490.00
2023-04-17T04:28:20.720Z,489.00
2023-04-17T04:29:20.772Z,487.00
2023-04-17T04:30:20.848Z,483.00
2023-04-17T04:31:20.957Z,484.00
2023-04-17T04:32:20.966Z,486.00
2023-04-17T04:33:21.049Z,486.00
2023-04-17T04:34:20.987Z,483.00
2023-04-17T04:35:28.069Z,485.00
2023-04-17T04:36:21.068Z,482.00
2023-04-17T04:37:21.028Z,483.00
2023-04-17T04:38:21.000Z,485.00
2023-04-17T04:39:20.986Z,488.00
2023-04-17T04:40:20.990Z,489.00
2023-04-17T04:41:20.990Z,487.00
2023-04-17T04:42:20.972Z,488.00
2023-04-17T04:43:22.567Z,488.00
2023-04-17T04:44:20.957Z,488.00
2023-04-17T04:45:20.979Z,489.00
2023-04-17T04:46:20.983Z,489.00
2023-04-17T04:47:21.006Z,488.00
2023-04-17T04:48:20.944Z,487.00
2023-04-17T04:49:20.956Z,485.00
2023-04-17T04:50:20.919Z,486.00
2023-04-17T04:51:20.942Z,488.00
2023-04-17T04:52:20.911Z,489.00
2023-04-17T04:53:20.896Z,485.00
2023-04-17T04:54:20.886Z,484.00
2023-04-17T04:55:20.910Z,483.00
2023-04-17T04:56:20.879Z,484.00
2023-04-17T04:57:20.884Z,484.00
2023-04-17T04:58:20.856Z,483.00
2023-04-17T04:59:20.882Z,482.00
2023-04-17T05:00:20.969Z,484.00
2023-04-17T05:01:21.106Z,487.00
2023-04-17T05:02:21.086Z,487.00
2023-04-17T05:03:21.173Z,487.00
2023-04-17T05:04:21.243Z,486.00
2023-04-17T05:05:21.142Z,484.00
2023-04-17T05:06:21.175Z,482.00
2023-04-17T05:07:21.245Z,485.00
2023-04-17T05:08:21.248Z,487.00
2023-04-17T05:09:21.319Z,485.00
2023-04-17T05:10:21.349Z,485.00
2023-04-17T05:11:21.430Z,484.00
2023-04-17T05:12:21.450Z,484.00
2023-04-17T05:13:21.558Z,486.00
2023-04-17T05:14:21.522Z,489.00
2023-04-17T05:15:21.560Z,489.00
2023-04-17T05:16:21.670Z,488.00
2023-04-17T05:17:21.645Z,486.00
2023-04-17T05:18:22.153Z,484.00
2023-04-17T05:19:21.732Z,482.00
2023-04-17T05:20:21.782Z,483.00
2023-04-17T05:21:21.848Z,481.00
2023-04-17T05:22:21.921Z,481.00
2023-04-17T05:23:21.934Z,482.00
2023-04-17T05:24:21.924Z,480.00
2023-04-17T05:25:21.969Z,478.00
2023-04-17T05:26:22.077Z,478.00
2023-04-17T05:27:22.076Z,480.00
2023-04-17T05:28:22.100Z,479.00
2023-04-17T05:29:22.154Z,479.00
2023-04-17T05:30:22.191Z,477.00
2023-04-17T05:31:22.719Z,476.00
2023-04-17T05:32:22.313Z,476.00
2023-04-17T05:33:22.335Z,476.00
2023-04-17T05:34:22.374Z,476.00
2023-04-17T05:35:22.481Z,479.00
2023-04-17T05:36:22.488Z,494.00
2023-04-17T05:37:22.514Z,556.00
2023-04-17T05:38:22.708Z,577.00
2023-04-17T05:39:22.583Z,595.00
2023-04-17T05:40:22.636Z,606.00
2023-04-17T05:41:22.639Z,631.00
2023-04-17T05:42:22.727Z,654.00
2023-04-17T05:43:23.163Z,728.00
2023-04-17T05:44:22.691Z,763.00
2023-04-17T05:45:24.877Z,785.00
2023-04-17T05:46:23.229Z,837.00
2023-04-17T05:47:22.788Z,867.00
2023-04-17T05:48:23.177Z,897.00
2023-04-17T05:49:22.660Z,929.00
2023-04-17T05:50:22.667Z,955.00
2023-04-17T05:51:22.659Z,1012.00
2023-04-17T05:52:22.659Z,1031.00
2023-04-17T05:53:22.655Z,1044.00
2023-04-17T05:54:22.590Z,1067.00
2023-04-17T05:55:22.632Z,1099.00
2023-04-17T05:56:22.622Z,1123.00
2023-04-17T05:57:22.595Z,1134.00
2023-04-17T05:58:24.192Z,1189.00
2023-04-17T05:59:22.591Z,1226.00
2023-04-17T06:00:22.653Z,1232.00
2023-04-17T06:01:22.692Z,1247.00
2023-04-17T06:02:22.724Z,1259.00
2023-04-17T06:03:22.775Z,1279.00
2023-04-17T06:04:22.709Z,1348.00
2023-04-17T06:05:22.724Z,1353.00
2023-04-17T06:06:22.537Z,1369.00
2023-04-17T06:07:22.508Z,1387.00
2023-04-17T06:08:22.504Z,1412.00
2023-04-17T06:09:24.465Z,1448.00
2023-04-17T06:10:22.514Z,1485.00
2023-04-17T06:11:22.520Z,1506.00
2023-04-17T06:12:22.570Z,1523.00
2023-04-17T06:13:22.501Z,1544.00
2023-04-17T06:14:22.475Z,1559.00
2023-04-17T06:15:22.493Z,1585.00
2023-04-17T06:16:22.532Z,1609.00
2023-04-17T06:17:22.474Z,1640.00
2023-04-17T06:18:22.471Z,1658.00
2023-04-17T06:19:22.480Z,1674.00
2023-04-17T06:20:22.422Z,1687.00
2023-04-17T06:21:22.449Z,1710.00
2023-04-17T06:22:22.418Z,1759.00
2023-04-17T06:23:22.685Z,1783.00
2023-04-17T06:24:22.405Z,1794.00
2023-04-17T06:25:22.400Z,1805.00
2023-04-17T06:26:22.399Z,1819.00
2023-04-17T06:27:22.425Z,1851.00
2023-04-17T06:28:22.385Z,1872.00
2023-04-17T06:29:22.376Z,1897.00
2023-04-17T06:30:22.382Z,1918.00
2023-04-17T06:31:22.388Z,1933.00
2023-04-17T06:32:22.364Z,1956.00
2023-04-17T06:33:24.067Z,1991.00
2023-04-17T06:34:22.332Z,2043.00
2023-04-17T06:35:22.388Z,2053.00
2023-04-17T06:36:22.313Z,2057.00
2023-04-17T06:37:22.351Z,2055.00
2023-04-17T06:38:22.323Z,2008.00
2023-04-17T06:39:22.294Z,1846.00
2023-04-17T06:40:22.320Z,1772.00
2023-04-17T06:41:22.298Z,1563.00
2023-04-17T06:42:22.334Z,1385.00
2023-04-17T06:43:22.322Z,1346.00
2023-04-17T06:44:22.282Z,1362.00
2023-04-17T06:45:22.270Z,1361.00
2023-04-17T06:46:22.326Z,1375.00
2023-04-17T06:47:22.303Z,1386.00
2023-04-17T06:48:22.342Z,1348.00
2023-04-17T06:49:22.257Z,1322.00
2023-04-17T06:50:22.227Z,1315.00
2023-04-17T06:51:22.245Z,1315.00
2023-04-17T06:52:22.726Z,1315.00
2023-04-17T06:53:22.693Z,1295.00
2023-04-17T06:54:22.222Z,1236.00
2023-04-17T06:55:22.203Z,1249.00
2023-04-17T06:56:22.197Z,1236.00
2023-04-17T06:57:22.199Z,1239.00
2023-04-17T06:58:22.213Z,1240.00
2023-04-17T06:59:22.173Z,1228.00
2023-04-17T07:00:22.167Z,1221.00
2023-04-17T07:01:22.215Z,1221.00
2023-04-17T07:02:22.355Z,1201.00
2023-04-17T07:03:22.329Z,1180.00
2023-04-17T07:04:22.145Z,1182.00
2023-04-17T07:05:22.132Z,1181.00
2023-04-17T07:06:22.127Z,1173.00
2023-04-17T07:07:22.123Z,1162.00
2023-04-17T07:08:22.159Z,1158.00
2023-04-17T07:09:22.114Z,1160.00
2023-04-17T07:10:22.192Z,1166.00
2023-04-17T07:11:22.100Z,1172.00
2023-04-17T07:12:22.076Z,1174.00
2023-04-17T07:13:22.107Z,1174.00
2023-04-17T07:14:22.052Z,1173.00
2023-04-17T07:15:22.105Z,1175.00
2023-04-17T07:16:22.099Z,1182.00
2023-04-17T07:17:22.075Z,1185.00
2023-04-17T07:18:22.035Z,1197.00
2023-04-17T07:19:22.176Z,1205.00
2023-04-17T07:20:22.037Z,1234.00
2023-04-17T07:21:22.186Z,1229.00
2023-04-17T07:22:22.013Z,1222.00
2023-04-17T07:23:21.988Z,1224.00
2023-04-17T07:24:22.011Z,1207.00
2023-04-17T07:25:21.977Z,1215.00
2023-04-17T07:26:21.989Z,1209.00
2023-04-17T07:27:21.954Z,1201.00
2023-04-17T07:28:21.967Z,1195.00
2023-04-17T07:29:22.205Z,1188.00
2023-04-17T07:30:22.014Z,1191.00
2023-04-17T07:31:22.176Z,1207.00
2023-04-17T07:32:21.968Z,1219.00
2023-04-17T07:33:21.921Z,1242.00
2023-04-17T07:34:22.200Z,1265.00
2023-04-17T07:35:21.940Z,1351.00
2023-04-17T07:36:21.911Z,1370.00
2023-04-17T07:37:21.936Z,1383.00
2023-04-17T07:38:21.903Z,1395.00
2023-04-17T07:39:21.917Z,1398.00
2023-04-17T07:40:21.939Z,1418.00
2023-04-17T07:41:21.890Z,1445.00
2023-04-17T07:42:22.079Z,1464.00
2023-04-17T07:43:21.872Z,1487.00
2023-04-17T07:44:22.215Z,1495.00
2023-04-17T07:45:21.853Z,1499.00
2023-04-17T07:46:21.871Z,1511.00
2023-04-17T07:47:22.405Z,1531.00
2023-04-17T07:48:21.813Z,1551.00
2023-04-17T07:49:21.836Z,1581.00
2023-04-17T07:50:21.815Z,1606.00
2023-04-17T07:51:21.808Z,1634.00
2023-04-17T07:52:22.209Z,1652.00
2023-04-17T07:53:21.916Z,1670.00
2023-04-17T07:54:22.046Z,1688.00
2023-04-17T07:55:22.056Z,1708.00
2023-04-17T07:56:22.101Z,1718.00
2023-04-17T07:57:22.161Z,1724.00
2023-04-17T07:58:22.234Z,1737.00
2023-04-17T07:59:22.300Z,1770.00
2023-04-17T08:00:22.330Z,1788.00
2023-04-17T08:01:22.375Z,1796.00
2023-04-17T08:02:23.036Z,1804.00
2023-04-17T08:03:22.648Z,1816.00
2023-04-17T08:04:22.763Z,1822.00
2023-04-17T08:05:22.620Z,1830.00
2023-04-17T08:06:22.664Z,1857.00
2023-04-17T08:07:22.739Z,1877.00
2023-04-17T08:08:22.661Z,1893.00
2023-04-17T08:09:22.765Z,1913.00
2023-04-17T08:10:22.741Z,1931.00
2023-04-17T08:11:22.782Z,1968.00
2023-04-17T08:12:23.218Z,1996.00
2023-04-17T08:13:22.805Z,2002.00
2023-04-17T08:14:23.231Z,2017.00
2023-04-17T08:15:22.902Z,2033.00
2023-04-17T08:16:22.952Z,2056.00
2023-04-17T08:17:23.027Z,2081.00
2023-04-17T08:18:23.047Z,2101.00
2023-04-17T08:19:23.230Z,2117.00
2023-04-17T08:20:23.200Z,2151.00
2023-04-17T08:21:23.108Z,2181.00
2023-04-17T08:22:23.242Z,2190.00
2023-04-17T08:23:23.141Z,2209.00
2023-04-17T08:24:23.226Z,2231.00
2023-04-17T08:25:23.196Z,2247.00
2023-04-17T08:26:23.261Z,2268.00
2023-04-17T08:27:23.270Z,2276.00
2023-04-17T08:28:24.234Z,2264.00
2023-04-17T08:29:23.363Z,2248.00
2023-04-17T08:30:23.460Z,2234.00
2023-04-17T08:31:23.475Z,2226.00
2023-04-17T08:32:23.803Z,2212.00
2023-04-17T08:33:23.508Z,2205.00
2023-04-17T08:34:23.734Z,2194.00
2023-04-17T08:35:23.590Z,2187.00
2023-04-17T08:36:23.641Z,2176.00
2023-04-17T08:37:23.725Z,2167.00
2023-04-17T08:38:23.735Z,2156.00
2023-04-17T08:39:24.273Z,2148.00
2023-04-17T08:40:23.905Z,2148.00
2023-04-17T08:41:23.900Z,2141.00
2023-04-17T08:42:23.970Z,2050.00
2023-04-17T08:43:24.006Z,2086.00
2023-04-17T08:44:24.093Z,2173.00
2023-04-17T08:45:24.830Z,2181.00
2023-04-17T08:46:24.308Z,2178.00
2023-04-17T08:47:24.753Z,2115.00
2023-04-17T08:48:24.357Z,2075.00
2023-04-17T08:49:24.379Z,2046.00
2023-04-17T08:50:24.429Z,2002.00
2023-04-17T08:51:24.646Z,1971.00
2023-04-17T08:52:24.850Z,1932.00
2023-04-17T08:53:24.610Z,1926.00
2023-04-17T08:54:24.683Z,1904.00
2023-04-17T08:55:24.743Z,1844.00
2023-04-17T08:56:24.817Z,1843.00
2023-04-17T08:57:25.307Z,1835.00
2023-04-17T08:58:28.481Z,1810.00
2023-04-17T08:59:24.853Z,1674.00
2023-04-17T09:00:24.844Z,1654.00
2023-04-17T09:01:24.858Z,1662.00
2023-04-17T09:02:27.612Z,1665.00
2023-04-17T09:03:24.920Z,1664.00
2023-04-17T09:04:25.055Z,1664.00
2023-04-17T09:05:24.848Z,1658.00
2023-04-17T09:06:24.850Z,1659.00
2023-04-17T09:07:24.821Z,1671.00
2023-04-17T09:08:24.817Z,1689.00
2023-04-17T09:09:24.784Z,1716.00
2023-04-17T09:10:24.766Z,1747.00
2023-04-17T09:11:24.767Z,1774.00
2023-04-17T09:12:24.774Z,1786.00
2023-04-17T09:13:24.904Z,1805.00
2023-04-17T09:14:26.602Z,1816.00
2023-04-17T09:15:24.739Z,1838.00
2023-04-17T09:16:24.767Z,1865.00
2023-04-17T09:17:24.765Z,1903.00
2023-04-17T09:18:24.748Z,1906.00
2023-04-17T09:19:24.705Z,1921.00
2023-04-17T09:20:24.703Z,1935.00
2023-04-17T09:21:24.806Z,1952.00
2023-04-17T09:22:24.698Z,1962.00
2023-04-17T09:23:24.697Z,1974.00
2023-04-17T09:24:24.679Z,1987.00
2023-04-17T09:25:24.681Z,2003.00
2023-04-17T09:26:24.740Z,2018.00
2023-04-17T09:27:24.684Z,2027.00
2023-04-17T09:28:24.737Z,2035.00
2023-04-17T09:29:24.758Z,2042.00
2023-04-17T09:30:24.827Z,2061.00
2023-04-17T09:31:25.026Z,2080.00
2023-04-17T09:32:25.302Z,2098.00
2023-04-17T09:33:24.894Z,2084.00
2023-04-17T09:34:25.063Z,2036.00
2023-04-17T09:35:24.992Z,1939.00
2023-04-17T09:36:25.062Z,1895.00
2023-04-17T09:37:25.041Z,1892.00
2023-04-17T09:38:25.070Z,1874.00
2023-04-17T09:39:25.104Z,1854.00
2023-04-17T09:40:25.375Z,1764.00
2023-04-17T09:41:25.244Z,1748.00
2023-04-17T09:42:25.251Z,1748.00
2023-04-17T09:43:25.282Z,1736.00
2023-04-17T09:44:25.327Z,1573.00
2023-04-17T09:45:26.012Z,1607.00
2023-04-17T09:46:25.459Z,1635.00
2023-04-17T09:47:25.595Z,1652.00
2023-04-17T09:48:25.559Z,1648.00
2023-04-17T09:49:25.612Z,1641.00
2023-04-17T09:50:25.722Z,1633.00
2023-04-17T09:51:25.766Z,1623.00
2023-04-17T09:52:25.804Z,1621.00
2023-04-17T09:53:25.875Z,1625.00
2023-04-17T09:54:25.937Z,1628.00
2023-04-17T09:55:26.022Z,1637.00
2023-04-17T09:56:26.032Z,1631.00
2023-04-17T09:57:26.091Z,1622.00
2023-04-17T09:58:26.196Z,1606.00
2023-04-17T09:59:26.193Z,1584.00
2023-04-17T10:00:26.325Z,1572.00
2023-04-17T10:01:26.378Z,1561.00
2023-04-17T10:02:26.405Z,1549.00
2023-04-17T10:03:26.465Z,1545.00
2023-04-17T10:04:26.392Z,1502.00
2023-04-17T10:05:26.406Z,1490.00
2023-04-17T10:06:26.398Z,1492.00
2023-04-17T10:07:26.449Z,1488.00
2023-04-17T10:08:26.422Z,1481.00
2023-04-17T10:09:26.528Z,1468.00
2023-04-17T10:10:26.771Z,1464.00
2023-04-17T10:11:26.413Z,1463.00
2023-04-17T10:12:26.420Z,1466.00
2023-04-17T10:13:26.399Z,1454.00
2023-04-17T10:14:26.411Z,1458.00
2023-04-17T10:15:26.406Z,1457.00
2023-04-17T10:16:26.417Z,1451.00
2023-04-17T10:17:26.526Z,1424.00
2023-04-17T10:18:26.444Z,1386.00
2023-04-17T10:19:27.271Z,1366.00
2023-04-17T10:20:26.422Z,1358.00
2023-04-17T10:21:26.403Z,1347.00
2023-04-17T10:22:26.440Z,1334.00
2023-04-17T10:23:26.441Z,1322.00
2023-04-17T10:24:26.485Z,1324.00
2023-04-17T10:25:26.780Z,1329.00
2023-04-17T10:26:26.558Z,1339.00
2023-04-17T10:27:26.496Z,1347.00
2023-04-17T10:28:26.788Z,1357.00
2023-04-17T10:29:26.470Z,1369.00
2023-04-17T10:30:26.538Z,1379.00
2023-04-17T10:31:26.509Z,1382.00
2023-04-17T10:32:26.558Z,1381.00
2023-04-17T10:33:26.793Z,1376.00
2023-04-17T10:34:26.506Z,1365.00
2023-04-17T10:35:26.524Z,1345.00
2023-04-17T10:36:26.629Z,1309.00
2023-04-17T10:37:26.486Z,1279.00
2023-04-17T10:38:26.554Z,1259.00
2023-04-17T10:39:26.535Z,1247.00
2023-04-17T10:40:26.531Z,1178.00
2023-04-17T10:41:26.791Z,1219.00
2023-04-17T10:42:26.542Z,1251.00
2023-04-17T10:43:26.926Z,1307.00
2023-04-17T10:44:26.562Z,1325.00
2023-04-17T10:45:26.563Z,1348.00
2023-04-17T10:46:26.859Z,1361.00
2023-04-17T10:47:26.587Z,1388.00
2023-04-17T10:48:26.580Z,1408.00
2023-04-17T10:49:26.643Z,1425.00
2023-04-17T10:50:26.650Z,1441.00
2023-04-17T10:51:26.857Z,1455.00
2023-04-17T10:52:26.786Z,1479.00
2023-04-17T10:53:27.309Z,1494.00
2023-04-17T10:54:26.961Z,1514.00
2023-04-17T10:55:26.960Z,1538.00
2023-04-17T10:56:27.046Z,1559.00
2023-04-17T10:57:27.057Z,1594.00
2023-04-17T10:58:31.967Z,1606.00
2023-04-17T10:59:28.120Z,1613.00
2023-04-17T11:00:27.089Z,1619.00
2023-04-17T11:01:29.026Z,1651.00
2023-04-17T11:02:27.129Z,1670.00
2023-04-17T11:03:27.195Z,1685.00
2023-04-17T11:04:27.188Z,1699.00
2023-04-17T11:05:27.080Z,1708.00
2023-04-17T11:06:27.051Z,1720.00
2023-04-17T11:07:27.048Z,1730.00
2023-04-17T11:08:27.045Z,1731.00
2023-04-17T11:09:27.052Z,1737.00
2023-04-17T11:10:27.048Z,1741.00
2023-04-17T11:11:43.057Z,1736.00
2023-04-17T11:12:28.017Z,1735.00
2023-04-17T11:13:27.005Z,1574.00
2023-04-17T11:14:26.992Z,1563.00
2023-04-17T11:15:27.007Z,1558.00
2023-04-17T11:16:27.072Z,1509.00
2023-04-17T11:17:27.053Z,1511.00
2023-04-17T11:18:26.963Z,1499.00
2023-04-17T11:19:26.974Z,1500.00
2023-04-17T11:20:27.030Z,1485.00
2023-04-17T11:21:26.980Z,1465.00
2023-04-17T11:22:26.998Z,1459.00
2023-04-17T11:23:27.314Z,1447.00
2023-04-17T11:24:27.131Z,1437.00
2023-04-17T11:25:27.208Z,1367.00
2023-04-17T11:26:27.227Z,1350.00
2023-04-17T11:27:27.287Z,1352.00
2023-04-17T11:28:27.303Z,1343.00
2023-04-17T11:29:27.382Z,1334.00
2023-04-17T11:30:27.472Z,1320.00
2023-04-17T11:31:27.455Z,1292.00
2023-04-17T11:32:27.491Z,1283.00
2023-04-17T11:33:27.450Z,1285.00
2023-04-17T11:34:27.500Z,1272.00
2023-04-17T11:35:27.400Z,1239.00
2023-04-17T11:36:27.408Z,1225.00
2023-04-17T11:37:27.394Z,1172.00
2023-04-17T11:38:27.407Z,1179.00
2023-04-17T11:39:27.426Z,1176.00
2023-04-17T11:40:27.389Z,1166.00
2023-04-17T11:41:27.410Z,1160.00
2023-04-17T11:42:27.505Z,1117.00
2023-04-17T11:43:27.437Z,1116.00
2023-04-17T11:44:27.463Z,1114.00
2023-04-17T11:45:27.504Z,1107.00
2023-04-17T11:46:27.560Z,1105.00
2023-04-17T11:47:27.531Z,1098.00
2023-04-17T11:48:27.521Z,1092.00
2023-04-17T11:49:27.684Z,1096.00
2023-04-17T11:50:27.511Z,1093.00
2023-04-17T11:51:27.592Z,1089.00
2023-04-17T11:52:27.559Z,1088.00
2023-04-17T11:53:27.717Z,1086.00
2023-04-17T11:54:27.704Z,1070.00
2023-04-17T11:55:27.743Z,989.00
2023-04-17T11:56:27.720Z,1014.00
2023-04-17T11:57:27.750Z,1002.00
2023-04-17T11:58:29.994Z,997.00
2023-04-17T11:59:27.987Z,995.00
2023-04-17T12:00:28.008Z,984.00
2023-04-17T12:01:28.032Z,980.00
2023-04-17T12:02:28.132Z,967.00
2023-04-17T12:03:28.247Z,955.00
2023-04-17T12:04:28.169Z,949.00
2023-04-17T12:05:28.331Z,939.00
2023-04-17T12:06:28.129Z,929.00
2023-04-17T12:07:28.197Z,915.00
2023-04-17T12:08:28.212Z,902.00
2023-04-17T12:09:28.223Z,893.00
2023-04-17T12:10:28.252Z,888.00
2023-04-17T12:11:28.270Z,882.00
2023-04-17T12:12:28.330Z,881.00
2023-04-17T12:13:28.355Z,874.00
2023-04-17T12:14:28.385Z,868.00
2023-04-17T12:15:28.432Z,864.00
2023-04-17T12:16:28.522Z,849.00
2023-04-17T12:17:28.533Z,832.00